sensor_id;sensor_type;location;lat;lon;timestamp;temperature;humidity
292;DHT22;23311;48.776;9.162;2023-03-15T00:02:25;2.10;95.50
292;DHT22;23311;48.776;9.162;2023-03-15T00:04:54;2.10;95.50
292;DHT22;23311;48.776;9.162;2023-03-15T00:07:22;2.20;95.50
292;DHT22;23311;48.776;9.162;2023-03-15T00:09:51;2.10;95.50
292;DHT22;23311;48.776;9.162;2023-03-15T00:12:20;2.20;95.50
292;DHT22;23311;48.776;9.162;2023-03-15T00:14:50;2.10;95.50
292;DHT22;23311;48.776;9.162;2023-03-15T00:17:18;2.10;95.50
292;DHT22;23311;48.776;9.162;2023-03-15T00:19:48;2.10;95.50
292;DHT22;23311;48.776;9.162;2023-03-15T00:22:18;2.10;95.50
292;DHT22;23311;48.776;9.162;2023-03-15T00:24:48;2.00;95.50
292;DHT22;23311;48.776;9.162;2023-03-15T00:27:16;2.10;95.50
292;DHT22;23311;48.776;9.162;2023-03-15T00:29:45;2.10;95.50
292;DHT22;23311;48.776;9.162;2023-03-15T00:32:13;2.10;95.50
292;DHT22;23311;48.776;9.162;2023-03-15T00:34:41;2.10;95.50
292;DHT22;23311;48.776;9.162;2023-03-15T00:37:15;2.10;95.50
292;DHT22;23311;48.776;9.162;2023-03-15T00:39:47;2.10;95.50
292;DHT22;23311;48.776;9.162;2023-03-15T00:42:15;2.10;95.50
292;DHT22;23311;48.776;9.162;2023-03-15T00:44:43;2.20;95.50
292;DHT22;23311;48.776;9.162;2023-03-15T00:47:13;2.10;95.50
292;DHT22;23311;48.776;9.162;2023-03-15T00:49:41;2.20;95.50
292;DHT22;23311;48.776;9.162;2023-03-15T00:52:09;2.20;95.50
292;DHT22;23311;48.776;9.162;2023-03-15T00:54:38;2.10;95.50
292;DHT22;23311;48.776;9.162;2023-03-15T00:57:09;2.00;95.50
292;DHT22;23311;48.776;9.162;2023-03-15T00:59:36;2.10;95.50
292;DHT22;23311;48.776;9.162;2023-03-15T01:02:05;2.10;95.50
292;DHT22;23311;48.776;9.162;2023-03-15T01:04:34;2.10;95.50
292;DHT22;23311;48.776;9.162;2023-03-15T01:07:02;2.00;95.50
292;DHT22;23311;48.776;9.162;2023-03-15T01:09:30;2.00;95.50
292;DHT22;23311;48.776;9.162;2023-03-15T01:11:58;1.90;95.50
292;DHT22;23311;48.776;9.162;2023-03-15T01:14:28;1.90;95.50
292;DHT22;23311;48.776;9.162;2023-03-15T01:16:56;1.80;95.50
292;DHT22;23311;48.776;9.162;2023-03-15T01:19:24;1.80;95.50
292;DHT22;23311;48.776;9.162;2023-03-15T01:21:52;1.70;95.50
292;DHT22;23311;48.776;9.162;2023-03-15T01:24:20;1.70;95.50
292;DHT22;23311;48.776;9.162;2023-03-15T01:26:48;1.60;95.50
292;DHT22;23311;48.776;9.162;2023-03-15T01:29:16;1.50;95.50
292;DHT22;23311;48.776;9.162;2023-03-15T01:31:45;1.60;95.50
292;DHT22;23311;48.776;9.162;2023-03-15T01:34:13;1.50;95.50
292;DHT22;23311;48.776;9.162;2023-03-15T01:36:41;1.50;95.50
292;DHT22;23311;48.776;9.162;2023-03-15T01:39:09;1.40;95.50
292;DHT22;23311;48.776;9.162;2023-03-15T01:41:37;1.50;95.50
292;DHT22;23311;48.776;9.162;2023-03-15T01:44:10;1.50;95.50
292;DHT22;23311;48.776;9.162;2023-03-15T01:46:38;1.60;95.50
292;DHT22;23311;48.776;9.162;2023-03-15T01:49:10;1.50;95.50
292;DHT22;23311;48.776;9.162;2023-03-15T01:51:43;1.50;95.50
292;DHT22;23311;48.776;9.162;2023-03-15T01:54:15;1.40;95.50
292;DHT22;23311;48.776;9.162;2023-03-15T01:56:47;1.20;95.50
292;DHT22;23311;48.776;9.162;2023-03-15T01:59:21;1.10;95.50
292;DHT22;23311;48.776;9.162;2023-03-15T02:01:51;0.90;95.50
292;DHT22;23311;48.776;9.162;2023-03-15T02:04:24;0.80;95.50
292;DHT22;23311;48.776;9.162;2023-03-15T02:06:57;0.90;95.50
292;DHT22;23311;48.776;9.162;2023-03-15T02:09:33;0.90;95.50
292;DHT22;23311;48.776;9.162;2023-03-15T02:12:03;0.80;95.50
292;DHT22;23311;48.776;9.162;2023-03-15T02:14:32;0.90;95.50
292;DHT22;23311;48.776;9.162;2023-03-15T02:17:00;0.70;95.50
292;DHT22;23311;48.776;9.162;2023-03-15T02:19:44;0.60;95.50
292;DHT22;23311;48.776;9.162;2023-03-15T02:22:22;0.60;95.50
292;DHT22;23311;48.776;9.162;2023-03-15T02:24:58;0.70;95.50
292;DHT22;23311;48.776;9.162;2023-03-15T02:27:31;0.70;95.50
292;DHT22;23311;48.776;9.162;2023-03-15T02:30:02;0.80;95.50
292;DHT22;23311;48.776;9.162;2023-03-15T02:32:30;0.70;95.50
292;DHT22;23311;48.776;9.162;2023-03-15T02:34:58;0.80;95.50
292;DHT22;23311;48.776;9.162;2023-03-15T02:37:27;0.90;95.50
292;DHT22;23311;48.776;9.162;2023-03-15T02:39:55;0.80;95.50
292;DHT22;23311;48.776;9.162;2023-03-15T02:42:23;0.80;95.50
292;DHT22;23311;48.776;9.162;2023-03-15T02:44:52;0.70;95.50
292;DHT22;23311;48.776;9.162;2023-03-15T02:47:24;0.60;95.50
292;DHT22;23311;48.776;9.162;2023-03-15T02:49:53;0.60;95.50
292;DHT22;23311;48.776;9.162;2023-03-15T02:52:22;0.60;95.50
292;DHT22;23311;48.776;9.162;2023-03-15T02:54:50;0.70;95.50
292;DHT22;23311;48.776;9.162;2023-03-15T02:57:20;0.70;95.50
292;DHT22;23311;48.776;9.162;2023-03-15T02:59:48;0.60;95.50
292;DHT22;23311;48.776;9.162;2023-03-15T03:02:18;0.50;95.50
292;DHT22;23311;48.776;9.162;2023-03-15T03:04:46;0.60;95.50
292;DHT22;23311;48.776;9.162;2023-03-15T03:07:15;0.60;95.50
292;DHT22;23311;48.776;9.162;2023-03-15T03:09:43;0.50;95.50
292;DHT22;23311;48.776;9.162;2023-03-15T03:12:11;0.90;95.50
292;DHT22;23311;48.776;9.162;2023-03-15T03:14:39;1.20;95.50
292;DHT22;23311;48.776;9.162;2023-03-15T03:17:09;1.50;95.50
292;DHT22;23311;48.776;9.162;2023-03-15T03:19:38;1.50;95.50
292;DHT22;23311;48.776;9.162;2023-03-15T03:22:06;1.40;95.50
292;DHT22;23311;48.776;9.162;2023-03-15T03:24:34;1.30;95.50
292;DHT22;23311;48.776;9.162;2023-03-15T03:27:02;1.20;95.50
292;DHT22;23311;48.776;9.162;2023-03-15T03:29:32;1.20;95.50
292;DHT22;23311;48.776;9.162;2023-03-15T03:32:00;1.30;95.50
292;DHT22;23311;48.776;9.162;2023-03-15T03:34:29;1.10;95.50
292;DHT22;23311;48.776;9.162;2023-03-15T03:36:58;0.80;95.50
292;DHT22;23311;48.776;9.162;2023-03-15T03:39:26;0.60;95.50
292;DHT22;23311;48.776;9.162;2023-03-15T03:41:54;0.60;95.50
292;DHT22;23311;48.776;9.162;2023-03-15T03:44:22;1.10;95.50
292;DHT22;23311;48.776;9.162;2023-03-15T03:46:50;1.00;95.50
292;DHT22;23311;48.776;9.162;2023-03-15T03:49:18;0.90;95.50
292;DHT22;23311;48.776;9.162;2023-03-15T03:51:46;0.90;95.50
292;DHT22;23311;48.776;9.162;2023-03-15T03:54:16;0.80;95.50
292;DHT22;23311;48.776;9.162;2023-03-15T03:56:47;0.90;95.50
292;DHT22;23311;48.776;9.162;2023-03-15T03:59:15;0.60;95.50
292;DHT22;23311;48.776;9.162;2023-03-15T04:01:43;0.30;95.50
292;DHT22;23311;48.776;9.162;2023-03-15T04:04:11;0.30;95.50
292;DHT22;23311;48.776;9.162;2023-03-15T04:06:40;0.30;95.50
292;DHT22;23311;48.776;9.162;2023-03-15T04:09:11;0.30;95.50
292;DHT22;23311;48.776;9.162;2023-03-15T04:11:42;0.30;95.50
292;DHT22;23311;48.776;9.162;2023-03-15T04:14:10;0.40;95.50
292;DHT22;23311;48.776;9.162;2023-03-15T04:16:39;0.40;95.50
292;DHT22;23311;48.776;9.162;2023-03-15T04:19:08;0.50;95.50
292;DHT22;23311;48.776;9.162;2023-03-15T04:21:38;0.70;95.50
292;DHT22;23311;48.776;9.162;2023-03-15T04:24:13;0.40;95.50
292;DHT22;23311;48.776;9.162;2023-03-15T04:26:42;0.30;95.50
292;DHT22;23311;48.776;9.162;2023-03-15T04:29:10;0.80;95.50
292;DHT22;23311;48.776;9.162;2023-03-15T04:31:40;1.10;95.50
292;DHT22;23311;48.776;9.162;2023-03-15T04:34:09;1.00;95.50
292;DHT22;23311;48.776;9.162;2023-03-15T04:36:37;0.90;95.50
292;DHT22;23311;48.776;9.162;2023-03-15T04:39:05;1.10;95.50
292;DHT22;23311;48.776;9.162;2023-03-15T04:41:33;1.10;95.50
292;DHT22;23311;48.776;9.162;2023-03-15T04:44:03;0.90;95.50
292;DHT22;23311;48.776;9.162;2023-03-15T04:46:32;0.90;95.50
292;DHT22;23311;48.776;9.162;2023-03-15T04:49:00;1.10;95.50
292;DHT22;23311;48.776;9.162;2023-03-15T04:51:30;1.10;95.50
292;DHT22;23311;48.776;9.162;2023-03-15T04:54:00;1.00;95.50
292;DHT22;23311;48.776;9.162;2023-03-15T04:56:29;1.00;95.50
292;DHT22;23311;48.776;9.162;2023-03-15T04:58:57;0.70;95.50
292;DHT22;23311;48.776;9.162;2023-03-15T05:01:29;0.70;95.50
292;DHT22;23311;48.776;9.162;2023-03-15T05:03:58;0.50;95.50
292;DHT22;23311;48.776;9.162;2023-03-15T05:06:26;0.10;95.50
292;DHT22;23311;48.776;9.162;2023-03-15T05:08:55;0.10;95.50
292;DHT22;23311;48.776;9.162;2023-03-15T05:11:23;0.10;95.50
292;DHT22;23311;48.776;9.162;2023-03-15T05:13:51;0.00;95.50
292;DHT22;23311;48.776;9.162;2023-03-15T05:16:20;-0.10;95.50
292;DHT22;23311;48.776;9.162;2023-03-15T05:18:49;0.20;95.50
292;DHT22;23311;48.776;9.162;2023-03-15T05:21:17;0.10;95.50
292;DHT22;23311;48.776;9.162;2023-03-15T05:23:45;0.10;95.50
292;DHT22;23311;48.776;9.162;2023-03-15T05:26:13;0.10;95.50
292;DHT22;23311;48.776;9.162;2023-03-15T05:28:41;0.60;95.50
292;DHT22;23311;48.776;9.162;2023-03-15T05:31:11;1.00;95.50
292;DHT22;23311;48.776;9.162;2023-03-15T05:33:39;1.10;95.50
292;DHT22;23311;48.776;9.162;2023-03-15T05:36:14;0.80;95.50
292;DHT22;23311;48.776;9.162;2023-03-15T05:38:43;0.70;95.50
292;DHT22;23311;48.776;9.162;2023-03-15T05:41:11;0.70;95.50
292;DHT22;23311;48.776;9.162;2023-03-15T05:43:43;0.60;95.50
292;DHT22;23311;48.776;9.162;2023-03-15T05:46:11;0.70;95.50
292;DHT22;23311;48.776;9.162;2023-03-15T05:48:40;0.70;95.50
292;DHT22;23311;48.776;9.162;2023-03-15T05:51:08;0.60;95.50
292;DHT22;23311;48.776;9.162;2023-03-15T05:53:37;0.60;95.50
292;DHT22;23311;48.776;9.162;2023-03-15T05:56:06;0.70;95.50
292;DHT22;23311;48.776;9.162;2023-03-15T05:58:34;0.90;95.50
292;DHT22;23311;48.776;9.162;2023-03-15T06:01:03;0.90;95.50
292;DHT22;23311;48.776;9.162;2023-03-15T06:03:31;0.80;95.50
292;DHT22;23311;48.776;9.162;2023-03-15T06:05:59;1.00;95.50
292;DHT22;23311;48.776;9.162;2023-03-15T06:08:29;0.90;95.50
292;DHT22;23311;48.776;9.162;2023-03-15T06:10:58;0.70;95.50
292;DHT22;23311;48.776;9.162;2023-03-15T06:13:26;0.60;95.50
292;DHT22;23311;48.776;9.162;2023-03-15T06:15:54;0.50;95.50
292;DHT22;23311;48.776;9.162;2023-03-15T06:18:22;0.50;95.50
292;DHT22;23311;48.776;9.162;2023-03-15T06:20:53;0.50;95.50
292;DHT22;23311;48.776;9.162;2023-03-15T06:23:21;0.50;95.50
292;DHT22;23311;48.776;9.162;2023-03-15T06:25:49;0.60;95.50
292;DHT22;23311;48.776;9.162;2023-03-15T06:28:19;0.70;95.50
292;DHT22;23311;48.776;9.162;2023-03-15T06:30:47;0.80;95.50
292;DHT22;23311;48.776;9.162;2023-03-15T06:33:15;1.00;95.50
292;DHT22;23311;48.776;9.162;2023-03-15T06:35:43;1.10;95.50
292;DHT22;23311;48.776;9.162;2023-03-15T06:38:12;1.30;95.50
292;DHT22;23311;48.776;9.162;2023-03-15T06:40:41;1.40;95.50
292;DHT22;23311;48.776;9.162;2023-03-15T06:43:09;1.50;95.50
292;DHT22;23311;48.776;9.162;2023-03-15T06:45:45;1.50;95.50
292;DHT22;23311;48.776;9.162;2023-03-15T06:48:13;1.60;95.50
292;DHT22;23311;48.776;9.162;2023-03-15T06:50:42;1.80;95.50
292;DHT22;23311;48.776;9.162;2023-03-15T06:53:13;1.80;95.50
292;DHT22;23311;48.776;9.162;2023-03-15T06:55:41;2.00;95.50
292;DHT22;23311;48.776;9.162;2023-03-15T06:58:09;2.00;95.50
292;DHT22;23311;48.776;9.162;2023-03-15T07:00:37;2.10;95.50
292;DHT22;23311;48.776;9.162;2023-03-15T07:03:07;2.10;95.50
292;DHT22;23311;48.776;9.162;2023-03-15T07:05:35;2.20;95.50
292;DHT22;23311;48.776;9.162;2023-03-15T07:08:04;2.40;95.50
292;DHT22;23311;48.776;9.162;2023-03-15T07:10:32;2.50;95.50
292;DHT22;23311;48.776;9.162;2023-03-15T07:13:00;2.60;95.50
292;DHT22;23311;48.776;9.162;2023-03-15T07:15:28;2.70;95.50
292;DHT22;23311;48.776;9.162;2023-03-15T07:17:56;2.70;95.50
292;DHT22;23311;48.776;9.162;2023-03-15T07:20:26;2.80;95.50
292;DHT22;23311;48.776;9.162;2023-03-15T07:22:54;2.80;95.50
292;DHT22;23311;48.776;9.162;2023-03-15T07:25:22;2.90;95.50
292;DHT22;23311;48.776;9.162;2023-03-15T07:27:52;3.00;95.50
292;DHT22;23311;48.776;9.162;2023-03-15T07:30:20;3.10;95.50
292;DHT22;23311;48.776;9.162;2023-03-15T07:32:48;3.10;95.50
292;DHT22;23311;48.776;9.162;2023-03-15T07:35:16;3.10;95.50
292;DHT22;23311;48.776;9.162;2023-03-15T07:37:46;3.20;95.50
292;DHT22;23311;48.776;9.162;2023-03-15T07:40:14;3.30;95.50
292;DHT22;23311;48.776;9.162;2023-03-15T07:42:42;3.30;95.50
292;DHT22;23311;48.776;9.162;2023-03-15T07:45:11;3.30;95.50
292;DHT22;23311;48.776;9.162;2023-03-15T07:47:39;3.40;95.50
292;DHT22;23311;48.776;9.162;2023-03-15T07:50:08;3.50;95.50
292;DHT22;23311;48.776;9.162;2023-03-15T07:52:39;3.50;95.50
292;DHT22;23311;48.776;9.162;2023-03-15T07:55:09;3.60;95.50
292;DHT22;23311;48.776;9.162;2023-03-15T07:57:37;3.70;95.50
292;DHT22;23311;48.776;9.162;2023-03-15T08:00:06;3.90;95.50
292;DHT22;23311;48.776;9.162;2023-03-15T08:02:38;3.90;95.50
292;DHT22;23311;48.776;9.162;2023-03-15T08:05:07;3.90;95.50
292;DHT22;23311;48.776;9.162;2023-03-15T08:07:36;4.00;95.50
292;DHT22;23311;48.776;9.162;2023-03-15T08:10:04;4.10;95.50
292;DHT22;23311;48.776;9.162;2023-03-15T08:12:34;4.10;95.50
292;DHT22;23311;48.776;9.162;2023-03-15T08:15:02;4.10;95.50
292;DHT22;23311;48.776;9.162;2023-03-15T08:17:30;4.10;95.50
292;DHT22;23311;48.776;9.162;2023-03-15T08:19:58;4.20;95.50
292;DHT22;23311;48.776;9.162;2023-03-15T08:22:31;4.20;95.50
292;DHT22;23311;48.776;9.162;2023-03-15T08:24:59;4.40;95.50
292;DHT22;23311;48.776;9.162;2023-03-15T08:27:27;4.70;95.50
292;DHT22;23311;48.776;9.162;2023-03-15T08:29:56;5.10;95.50
292;DHT22;23311;48.776;9.162;2023-03-15T08:32:25;5.30;95.50
292;DHT22;23311;48.776;9.162;2023-03-15T08:34:53;5.60;94.70
292;DHT22;23311;48.776;9.162;2023-03-15T08:37:21;6.00;93.20
292;DHT22;23311;48.776;9.162;2023-03-15T08:39:49;6.60;91.30
292;DHT22;23311;48.776;9.162;2023-03-15T08:42:23;6.80;90.30
292;DHT22;23311;48.776;9.162;2023-03-15T08:44:51;7.30;89.60
292;DHT22;23311;48.776;9.162;2023-03-15T08:47:21;8.50;87.10
292;DHT22;23311;48.776;9.162;2023-03-15T08:49:49;10.00;84.10
292;DHT22;23311;48.776;9.162;2023-03-15T08:52:19;10.00;80.60
292;DHT22;23311;48.776;9.162;2023-03-15T08:54:47;10.20;80.20
292;DHT22;23311;48.776;9.162;2023-03-15T08:57:15;11.40;78.60
292;DHT22;23311;48.776;9.162;2023-03-15T08:59:43;12.10;74.80
292;DHT22;23311;48.776;9.162;2023-03-15T09:02:11;9.80;76.30
292;DHT22;23311;48.776;9.162;2023-03-15T09:04:40;8.70;80.70
292;DHT22;23311;48.776;9.162;2023-03-15T09:07:09;9.00;80.90
292;DHT22;23311;48.776;9.162;2023-03-15T09:09:38;8.40;82.00
292;DHT22;23311;48.776;9.162;2023-03-15T09:12:06;8.10;82.40
292;DHT22;23311;48.776;9.162;2023-03-15T09:14:35;8.30;82.10
292;DHT22;23311;48.776;9.162;2023-03-15T09:17:03;8.70;81.70
292;DHT22;23311;48.776;9.162;2023-03-15T09:19:31;8.20;81.60
292;DHT22;23311;48.776;9.162;2023-03-15T09:22:00;8.30;83.20
292;DHT22;23311;48.776;9.162;2023-03-15T09:24:48;8.50;81.90
292;DHT22;23311;48.776;9.162;2023-03-15T09:27:18;8.20;81.80
292;DHT22;23311;48.776;9.162;2023-03-15T09:29:46;6.60;85.60
292;DHT22;23311;48.776;9.162;2023-03-15T09:32:14;7.00;86.40
292;DHT22;23311;48.776;9.162;2023-03-15T09:34:42;6.60;85.70
292;DHT22;23311;48.776;9.162;2023-03-15T09:37:12;6.30;86.70
292;DHT22;23311;48.776;9.162;2023-03-15T09:39:40;6.40;87.10
292;DHT22;23311;48.776;9.162;2023-03-15T09:42:15;6.90;84.70
292;DHT22;23311;48.776;9.162;2023-03-15T09:44:45;7.20;83.70
292;DHT22;23311;48.776;9.162;2023-03-15T09:47:27;7.30;82.90
292;DHT22;23311;48.776;9.162;2023-03-15T09:50:02;7.20;82.60
292;DHT22;23311;48.776;9.162;2023-03-15T09:52:36;7.00;83.10
292;DHT22;23311;48.776;9.162;2023-03-15T09:55:12;6.80;84.10
292;DHT22;23311;48.776;9.162;2023-03-15T09:57:44;7.00;84.40
292;DHT22;23311;48.776;9.162;2023-03-15T10:00:18;7.30;83.80
292;DHT22;23311;48.776;9.162;2023-03-15T10:02:54;7.50;82.90
292;DHT22;23311;48.776;9.162;2023-03-15T10:05:27;7.30;82.40
292;DHT22;23311;48.776;9.162;2023-03-15T10:08:00;7.50;82.90
292;DHT22;23311;48.776;9.162;2023-03-15T10:10:36;7.80;82.20
292;DHT22;23311;48.776;9.162;2023-03-15T10:13:19;7.40;81.90
292;DHT22;23311;48.776;9.162;2023-03-15T10:15:58;8.20;81.20
292;DHT22;23311;48.776;9.162;2023-03-15T10:18:42;9.00;79.70
292;DHT22;23311;48.776;9.162;2023-03-15T10:21:19;9.20;78.70
292;DHT22;23311;48.776;9.162;2023-03-15T10:23:54;9.30;78.40
292;DHT22;23311;48.776;9.162;2023-03-15T10:26:27;9.60;77.50
292;DHT22;23311;48.776;9.162;2023-03-15T10:28:55;9.60;77.60
292;DHT22;23311;48.776;9.162;2023-03-15T10:31:26;9.20;77.60
292;DHT22;23311;48.776;9.162;2023-03-15T10:34:09;8.00;76.80
292;DHT22;23311;48.776;9.162;2023-03-15T10:36:43;7.60;78.20
292;DHT22;23311;48.776;9.162;2023-03-15T10:39:13;7.90;78.70
292;DHT22;23311;48.776;9.162;2023-03-15T10:41:42;9.40;76.70
292;DHT22;23311;48.776;9.162;2023-03-15T10:44:13;10.50;74.70
292;DHT22;23311;48.776;9.162;2023-03-15T10:46:58;10.70;73.40
292;DHT22;23311;48.776;9.162;2023-03-15T10:49:39;10.30;73.80
292;DHT22;23311;48.776;9.162;2023-03-15T10:52:24;9.60;74.60
292;DHT22;23311;48.776;9.162;2023-03-15T10:54:54;10.00;75.10
292;DHT22;23311;48.776;9.162;2023-03-15T10:57:35;10.50;74.50
292;DHT22;23311;48.776;9.162;2023-03-15T11:00:20;10.20;73.20
292;DHT22;23311;48.776;9.162;2023-03-15T11:02:51;9.40;75.70
292;DHT22;23311;48.776;9.162;2023-03-15T11:05:19;9.20;77.10
292;DHT22;23311;48.776;9.162;2023-03-15T11:07:55;8.80;78.20
292;DHT22;23311;48.776;9.162;2023-03-15T11:10:27;8.30;78.90
292;DHT22;23311;48.776;9.162;2023-03-15T11:13:12;8.00;80.30
292;DHT22;23311;48.776;9.162;2023-03-15T11:15:48;8.00;80.50
292;DHT22;23311;48.776;9.162;2023-03-15T11:18:26;7.90;81.20
292;DHT22;23311;48.776;9.162;2023-03-15T11:20:55;7.90;81.50
292;DHT22;23311;48.776;9.162;2023-03-15T11:23:26;7.80;81.00
292;DHT22;23311;48.776;9.162;2023-03-15T11:25:56;7.60;80.80
292;DHT22;23311;48.776;9.162;2023-03-15T11:28:27;7.80;80.10
292;DHT22;23311;48.776;9.162;2023-03-15T11:30:57;7.90;80.00
292;DHT22;23311;48.776;9.162;2023-03-15T11:33:35;8.40;79.90
292;DHT22;23311;48.776;9.162;2023-03-15T11:36:07;8.60;79.00
292;DHT22;23311;48.776;9.162;2023-03-15T11:38:40;8.50;78.60
292;DHT22;23311;48.776;9.162;2023-03-15T11:41:20;8.20;79.30
292;DHT22;23311;48.776;9.162;2023-03-15T11:43:58;8.40;79.40
292;DHT22;23311;48.776;9.162;2023-03-15T11:46:32;8.30;78.20
292;DHT22;23311;48.776;9.162;2023-03-15T11:49:06;8.50;77.00
292;DHT22;23311;48.776;9.162;2023-03-15T11:51:38;8.30;75.60
292;DHT22;23311;48.776;9.162;2023-03-15T11:54:12;8.40;74.90
292;DHT22;23311;48.776;9.162;2023-03-15T11:56:48;8.60;74.70
292;DHT22;23311;48.776;9.162;2023-03-15T11:59:19;8.50;74.80
292;DHT22;23311;48.776;9.162;2023-03-15T12:01:49;8.50;74.90
292;DHT22;23311;48.776;9.162;2023-03-15T12:04:38;8.30;75.40
292;DHT22;23311;48.776;9.162;2023-03-15T12:10:31;8.30;75.50
292;DHT22;23311;48.776;9.162;2023-03-15T12:13:06;8.40;75.30
292;DHT22;23311;48.776;9.162;2023-03-15T12:15:45;8.50;75.40
292;DHT22;23311;48.776;9.162;2023-03-15T12:18:20;8.70;75.20
292;DHT22;23311;48.776;9.162;2023-03-15T12:20:51;8.50;76.10
292;DHT22;23311;48.776;9.162;2023-03-15T12:23:33;8.80;76.00
292;DHT22;23311;48.776;9.162;2023-03-15T12:26:07;8.90;75.90
292;DHT22;23311;48.776;9.162;2023-03-15T12:28:39;9.00;75.70
292;DHT22;23311;48.776;9.162;2023-03-15T12:31:12;9.20;75.20
292;DHT22;23311;48.776;9.162;2023-03-15T12:33:46;9.30;75.20
292;DHT22;23311;48.776;9.162;2023-03-15T12:36:20;9.70;74.90
292;DHT22;23311;48.776;9.162;2023-03-15T12:38:59;9.50;74.70
292;DHT22;23311;48.776;9.162;2023-03-15T12:41:37;9.80;74.90
292;DHT22;23311;48.776;9.162;2023-03-15T12:44:37;10.50;73.90
292;DHT22;23311;48.776;9.162;2023-03-15T12:47:06;10.30;73.30
292;DHT22;23311;48.776;9.162;2023-03-15T12:49:37;10.20;73.90
292;DHT22;23311;48.776;9.162;2023-03-15T12:52:25;9.80;74.30
292;DHT22;23311;48.776;9.162;2023-03-15T12:54:59;9.50;75.30
292;DHT22;23311;48.776;9.162;2023-03-15T12:57:29;9.10;75.50
292;DHT22;23311;48.776;9.162;2023-03-15T13:00:03;8.80;77.10
292;DHT22;23311;48.776;9.162;2023-03-15T13:02:35;8.50;78.00
292;DHT22;23311;48.776;9.162;2023-03-15T13:05:23;8.20;79.40
292;DHT22;23311;48.776;9.162;2023-03-15T13:07:57;8.20;81.30
292;DHT22;23311;48.776;9.162;2023-03-15T13:10:50;7.40;86.80
292;DHT22;23311;48.776;9.162;2023-03-15T13:13:48;7.10;90.00
292;DHT22;23311;48.776;9.162;2023-03-15T13:16:28;7.10;91.10
292;DHT22;23311;48.776;9.162;2023-03-15T13:19:13;7.60;90.80
292;DHT22;23311;48.776;9.162;2023-03-15T13:21:55;8.20;88.30
292;DHT22;23311;48.776;9.162;2023-03-15T13:24:36;8.60;87.60
292;DHT22;23311;48.776;9.162;2023-03-15T13:27:14;8.80;87.20
292;DHT22;23311;48.776;9.162;2023-03-15T13:29:49;8.60;87.80
292;DHT22;23311;48.776;9.162;2023-03-15T13:32:21;8.30;89.20
292;DHT22;23311;48.776;9.162;2023-03-15T13:34:50;7.90;90.20
292;DHT22;23311;48.776;9.162;2023-03-15T13:37:21;7.80;90.70
292;DHT22;23311;48.776;9.162;2023-03-15T13:39:53;7.50;91.20
292;DHT22;23311;48.776;9.162;2023-03-15T13:42:22;7.40;91.50
292;DHT22;23311;48.776;9.162;2023-03-15T13:45:10;7.60;91.30
292;DHT22;23311;48.776;9.162;2023-03-15T13:47:41;7.60;90.50
292;DHT22;23311;48.776;9.162;2023-03-15T13:50:14;7.20;91.60
292;DHT22;23311;48.776;9.162;2023-03-15T13:52:43;6.70;94.00
292;DHT22;23311;48.776;9.162;2023-03-15T13:55:13;6.60;95.40
292;DHT22;23311;48.776;9.162;2023-03-15T13:57:42;6.50;95.50
292;DHT22;23311;48.776;9.162;2023-03-15T14:00:13;6.30;95.50
292;DHT22;23311;48.776;9.162;2023-03-15T14:02:47;6.10;95.50
292;DHT22;23311;48.776;9.162;2023-03-15T14:05:20;5.80;95.50
292;DHT22;23311;48.776;9.162;2023-03-15T14:07:56;6.00;95.50
292;DHT22;23311;48.776;9.162;2023-03-15T14:10:30;6.20;95.50
292;DHT22;23311;48.776;9.162;2023-03-15T14:13:15;6.10;95.50
292;DHT22;23311;48.776;9.162;2023-03-15T14:15:45;6.20;95.50
292;DHT22;23311;48.776;9.162;2023-03-15T14:18:20;6.50;95.50
292;DHT22;23311;48.776;9.162;2023-03-15T14:20:53;6.80;95.50
292;DHT22;23311;48.776;9.162;2023-03-15T14:23:24;7.10;95.50
292;DHT22;23311;48.776;9.162;2023-03-15T14:25:54;7.10;95.50
292;DHT22;23311;48.776;9.162;2023-03-15T14:28:23;6.70;95.50
292;DHT22;23311;48.776;9.162;2023-03-15T14:30:53;6.80;95.50
292;DHT22;23311;48.776;9.162;2023-03-15T14:33:30;6.90;95.50
292;DHT22;23311;48.776;9.162;2023-03-15T14:36:00;7.20;95.30
292;DHT22;23311;48.776;9.162;2023-03-15T14:38:33;7.50;94.60
292;DHT22;23311;48.776;9.162;2023-03-15T14:41:29;7.60;93.30
292;DHT22;23311;48.776;9.162;2023-03-15T14:43:59;7.70;92.80
292;DHT22;23311;48.776;9.162;2023-03-15T14:46:29;7.80;93.90
292;DHT22;23311;48.776;9.162;2023-03-15T14:48:59;7.60;94.90
292;DHT22;23311;48.776;9.162;2023-03-15T14:51:28;7.50;95.10
292;DHT22;23311;48.776;9.162;2023-03-15T14:53:58;7.20;95.40
292;DHT22;23311;48.776;9.162;2023-03-15T14:56:27;6.90;95.50
292;DHT22;23311;48.776;9.162;2023-03-15T14:58:55;6.80;95.50
292;DHT22;23311;48.776;9.162;2023-03-15T15:01:25;6.50;95.50
292;DHT22;23311;48.776;9.162;2023-03-15T15:03:56;6.10;95.50
292;DHT22;23311;48.776;9.162;2023-03-15T15:06:28;5.70;95.50
292;DHT22;23311;48.776;9.162;2023-03-15T15:08:58;5.30;95.50
292;DHT22;23311;48.776;9.162;2023-03-15T15:11:27;4.80;95.50
292;DHT22;23311;48.776;9.162;2023-03-15T15:13:55;4.40;95.50
292;DHT22;23311;48.776;9.162;2023-03-15T15:16:24;4.20;95.50
292;DHT22;23311;48.776;9.162;2023-03-15T15:18:52;4.10;95.50
292;DHT22;23311;48.776;9.162;2023-03-15T15:21:23;4.10;95.50
292;DHT22;23311;48.776;9.162;2023-03-15T15:23:54;3.90;95.50
292;DHT22;23311;48.776;9.162;2023-03-15T15:26:27;3.90;95.50
292;DHT22;23311;48.776;9.162;2023-03-15T15:28:56;3.80;95.50
292;DHT22;23311;48.776;9.162;2023-03-15T15:31:26;3.50;95.50
292;DHT22;23311;48.776;9.162;2023-03-15T15:33:55;3.30;95.50
292;DHT22;23311;48.776;9.162;2023-03-15T15:36:25;3.20;95.50
292;DHT22;23311;48.776;9.162;2023-03-15T15:38:59;3.10;95.50
292;DHT22;23311;48.776;9.162;2023-03-15T15:41:33;3.20;95.50
292;DHT22;23311;48.776;9.162;2023-03-15T15:44:01;3.20;95.50
292;DHT22;23311;48.776;9.162;2023-03-15T15:46:29;3.20;95.50
292;DHT22;23311;48.776;9.162;2023-03-15T15:48:58;3.20;95.50
292;DHT22;23311;48.776;9.162;2023-03-15T15:51:28;3.30;95.50
292;DHT22;23311;48.776;9.162;2023-03-15T15:54:00;3.40;95.50
292;DHT22;23311;48.776;9.162;2023-03-15T15:56:32;3.50;95.50
292;DHT22;23311;48.776;9.162;2023-03-15T15:59:02;3.60;95.50
292;DHT22;23311;48.776;9.162;2023-03-15T16:01:31;3.70;95.50
292;DHT22;23311;48.776;9.162;2023-03-15T16:04:00;3.80;95.50
292;DHT22;23311;48.776;9.162;2023-03-15T16:06:29;3.90;95.50
292;DHT22;23311;48.776;9.162;2023-03-15T16:09:00;4.10;95.50
292;DHT22;23311;48.776;9.162;2023-03-15T16:11:28;4.20;95.50
292;DHT22;23311;48.776;9.162;2023-03-15T16:13:57;4.20;95.50
292;DHT22;23311;48.776;9.162;2023-03-15T16:16:25;4.30;95.50
292;DHT22;23311;48.776;9.162;2023-03-15T16:18:54;4.20;95.50
292;DHT22;23311;48.776;9.162;2023-03-15T16:21:28;4.30;95.50
292;DHT22;23311;48.776;9.162;2023-03-15T16:24:04;4.40;95.50
292;DHT22;23311;48.776;9.162;2023-03-15T16:26:34;4.40;95.50
292;DHT22;23311;48.776;9.162;2023-03-15T16:29:11;4.40;95.50
292;DHT22;23311;48.776;9.162;2023-03-15T16:31:42;4.40;95.50
292;DHT22;23311;48.776;9.162;2023-03-15T16:34:12;4.40;95.50
292;DHT22;23311;48.776;9.162;2023-03-15T16:36:42;4.40;95.50
292;DHT22;23311;48.776;9.162;2023-03-15T16:39:15;4.50;95.50
292;DHT22;23311;48.776;9.162;2023-03-15T16:41:43;4.50;95.50
292;DHT22;23311;48.776;9.162;2023-03-15T16:44:13;4.50;95.50
292;DHT22;23311;48.776;9.162;2023-03-15T16:46:41;4.50;95.50